Salley, South Carolina
Current Conditions -  °F | °C
As of 11:35 AM on Saturday 22 Nov 2014 (Local Time) from KBNL Reporting Station
Clear Clear  
Wind Chill: 57°   Ceiling: Unl
Heat Index: 57°   Visibility: NA
Dew Point: 28°   Wind: 9mph
Humidity: 33%   Direction: 80°E
Pressure: 30.48"   Gusts: NA
Location:  33.57°N, 81.3°W
Report Text: KBNL 221635Z AUTO 08008KT CLR 14/M02 A3048 RMK AO2
Loading
Personal Weather Stations






























Interactive Weather Map New forecast layout! Learn more

10-Day Weather Forecast

Advertisements
Track Severe Weather on mobile